sensor_id;sensor_type;location;lat;lon;timestamp;pressure;altitude;pressure_sealevel;temperature;humidity
57086;BME280;42964;42.910;23.792;2024-02-16T00:04:02;98363.19;;;3.37;73.97
57086;BME280;42964;42.910;23.792;2024-02-16T00:09:01;98100.94;;;1.77;74.02
57086;BME280;42964;42.910;23.792;2024-02-16T00:14:00;98336.56;;;3.11;73.83
57086;BME280;42964;42.910;23.792;2024-02-16T00:18:59;98376.72;;;3.33;73.76
57086;BME280;42964;42.910;23.792;2024-02-16T00:23:58;98382.84;;;3.14;74.15
57086;BME280;42964;42.910;23.792;2024-02-16T00:28:56;98384.47;;;3.12;75.30
57086;BME280;42964;42.910;23.792;2024-02-16T00:33:56;98251.91;;;2.42;76.01
57086;BME280;42964;42.910;23.792;2024-02-16T00:38:55;98362.81;;;3.04;75.50
57086;BME280;42964;42.910;23.792;2024-02-16T00:43:54;98344.06;;;2.61;77.34
57086;BME280;42964;42.910;23.792;2024-02-16T00:48:55;98370.13;;;2.94;76.77
57086;BME280;42964;42.910;23.792;2024-02-16T00:53:53;98286.09;;;2.65;76.03
57086;BME280;42964;42.910;23.792;2024-02-16T00:58:52;98388.56;;;3.29;75.23
57086;BME280;42964;42.910;23.792;2024-02-16T01:03:52;98318.03;;;2.95;74.54
57086;BME280;42964;42.910;23.792;2024-02-16T01:08:51;98369.50;;;3.22;73.65
57086;BME280;42964;42.910;23.792;2024-02-16T01:13:50;98361.03;;;3.25;73.66
57086;BME280;42964;42.910;23.792;2024-02-16T01:18:49;98354.34;;;3.29;72.61
57086;BME280;42964;42.910;23.792;2024-02-16T01:23:48;98197.31;;;2.43;72.32
57086;BME280;42964;42.910;23.792;2024-02-16T01:28:47;98360.91;;;3.44;72.15
57086;BME280;42964;42.910;23.792;2024-02-16T01:33:46;98322.03;;;3.10;72.18
57086;BME280;42964;42.910;23.792;2024-02-16T01:38:44;98334.81;;;3.32;71.99
57086;BME280;42964;42.910;23.792;2024-02-16T01:43:43;98366.25;;;3.51;71.64
57086;BME280;42964;42.910;23.792;2024-02-16T01:48:42;98352.00;;;3.35;72.49
57086;BME280;42964;42.910;23.792;2024-02-16T01:53:42;98359.94;;;3.41;73.79
57086;BME280;42964;42.910;23.792;2024-02-16T01:58:41;98333.75;;;3.27;73.79
57086;BME280;42964;42.910;23.792;2024-02-16T02:03:40;98346.94;;;3.36;74.21
57086;BME280;42964;42.910;23.792;2024-02-16T02:08:39;98360.63;;;3.37;74.27
57086;BME280;42964;42.910;23.792;2024-02-16T02:13:38;98328.28;;;3.18;75.29
57086;BME280;42964;42.910;23.792;2024-02-16T02:18:37;98329.91;;;3.16;75.46
57086;BME280;42964;42.910;23.792;2024-02-16T02:23:36;98360.59;;;3.59;75.10
57086;BME280;42964;42.910;23.792;2024-02-16T02:28:35;98332.69;;;3.44;75.17
57086;BME280;42964;42.910;23.792;2024-02-16T02:33:34;98341.22;;;3.43;75.91
57086;BME280;42964;42.910;23.792;2024-02-16T02:38:33;98356.53;;;3.42;76.46
57086;BME280;42964;42.910;23.792;2024-02-16T02:43:32;98349.25;;;3.53;75.88
57086;BME280;42964;42.910;23.792;2024-02-16T02:48:30;98320.44;;;3.37;75.93
57086;BME280;42964;42.910;23.792;2024-02-16T02:53:29;98330.44;;;3.54;75.18
57086;BME280;42964;42.910;23.792;2024-02-16T02:58:28;98352.66;;;3.77;75.31
57086;BME280;42964;42.910;23.792;2024-02-16T03:03:27;98280.13;;;3.33;75.18
57086;BME280;42964;42.910;23.792;2024-02-16T03:08:28;98336.94;;;3.68;74.79
57086;BME280;42964;42.910;23.792;2024-02-16T03:13:27;98321.38;;;3.63;74.93
57086;BME280;42964;42.910;23.792;2024-02-16T03:18:29;98354.59;;;3.83;75.82
57086;BME280;42964;42.910;23.792;2024-02-16T03:23:29;98367.69;;;3.91;75.46
57086;BME280;42964;42.910;23.792;2024-02-16T03:28:28;98345.81;;;3.76;75.53
57086;BME280;42964;42.910;23.792;2024-02-16T03:33:27;98317.41;;;3.72;75.33
57086;BME280;42964;42.910;23.792;2024-02-16T03:38:25;98353.31;;;3.96;75.09
57086;BME280;42964;42.910;23.792;2024-02-16T03:43:25;98366.75;;;3.89;75.50
57086;BME280;42964;42.910;23.792;2024-02-16T03:48:23;98365.53;;;4.03;75.08
57086;BME280;42964;42.910;23.792;2024-02-16T03:53:23;98365.84;;;4.11;75.17
57086;BME280;42964;42.910;23.792;2024-02-16T03:58:22;98380.34;;;4.10;75.20
57086;BME280;42964;42.910;23.792;2024-02-16T04:03:21;98354.81;;;3.65;75.62
57086;BME280;42964;42.910;23.792;2024-02-16T04:08:20;98362.34;;;3.60;75.87
57086;BME280;42964;42.910;23.792;2024-02-16T04:13:19;98226.81;;;2.78;75.71
57086;BME280;42964;42.910;23.792;2024-02-16T04:18:18;98362.00;;;3.51;75.63
57086;BME280;42964;42.910;23.792;2024-02-16T04:23:17;98188.53;;;2.58;75.96
57086;BME280;42964;42.910;23.792;2024-02-16T04:28:16;98286.56;;;3.22;75.80
57086;BME280;42964;42.910;23.792;2024-02-16T04:33:17;98366.16;;;3.72;75.69
57086;BME280;42964;42.910;23.792;2024-02-16T04:38:16;98237.84;;;2.75;76.20
57086;BME280;42964;42.910;23.792;2024-02-16T04:43:15;98330.00;;;3.41;76.71
57086;BME280;42964;42.910;23.792;2024-02-16T04:48:14;98349.00;;;3.47;76.75
57086;BME280;42964;42.910;23.792;2024-02-16T04:53:14;98377.91;;;3.65;76.58
57086;BME280;42964;42.910;23.792;2024-02-16T04:58:13;98372.69;;;3.63;76.88
57086;BME280;42964;42.910;23.792;2024-02-16T05:03:11;98351.31;;;3.63;76.58
57086;BME280;42964;42.910;23.792;2024-02-16T05:08:11;98297.69;;;3.22;76.88
57086;BME280;42964;42.910;23.792;2024-02-16T05:13:10;98377.47;;;3.77;77.01
57086;BME280;42964;42.910;23.792;2024-02-16T05:18:10;98379.28;;;3.79;76.99
57086;BME280;42964;42.910;23.792;2024-02-16T05:23:11;98339.13;;;3.57;76.68
57086;BME280;42964;42.910;23.792;2024-02-16T05:28:10;98397.81;;;3.95;76.24
57086;BME280;42964;42.910;23.792;2024-02-16T05:33:09;98386.69;;;3.96;76.46
57086;BME280;42964;42.910;23.792;2024-02-16T05:38:08;98300.22;;;3.45;76.51
57086;BME280;42964;42.910;23.792;2024-02-16T05:43:19;98337.88;;;3.70;76.03
57086;BME280;42964;42.910;23.792;2024-02-16T05:48:19;98397.13;;;4.00;76.50
57086;BME280;42964;42.910;23.792;2024-02-16T05:53:18;98411.47;;;4.19;76.01
57086;BME280;42964;42.910;23.792;2024-02-16T05:58:17;98420.09;;;4.20;76.02
57086;BME280;42964;42.910;23.792;2024-02-16T06:03:16;98403.69;;;4.16;76.10
57086;BME280;42964;42.910;23.792;2024-02-16T06:08:15;98424.28;;;4.18;76.33
57086;BME280;42964;42.910;23.792;2024-02-16T06:13:16;98408.28;;;4.01;77.47
57086;BME280;42964;42.910;23.792;2024-02-16T06:18:15;98434.13;;;4.29;76.76
57086;BME280;42964;42.910;23.792;2024-02-16T06:23:14;98413.03;;;3.90;77.71
57086;BME280;42964;42.910;23.792;2024-02-16T06:28:15;98180.13;;;2.17;78.14
57086;BME280;42964;42.910;23.792;2024-02-16T06:33:14;98370.44;;;3.71;77.83
57086;BME280;42964;42.910;23.792;2024-02-16T06:38:14;98396.53;;;3.83;78.34
57086;BME280;42964;42.910;23.792;2024-02-16T06:43:13;98262.97;;;3.32;78.28
57086;BME280;42964;42.910;23.792;2024-02-16T06:48:11;98431.03;;;4.40;77.73
57086;BME280;42964;42.910;23.792;2024-02-16T06:53:10;98422.31;;;4.60;76.99
57086;BME280;42964;42.910;23.792;2024-02-16T06:58:09;98424.09;;;4.63;75.43
57086;BME280;42964;42.910;23.792;2024-02-16T07:03:08;98422.81;;;4.50;74.20
57086;BME280;42964;42.910;23.792;2024-02-16T07:08:07;98421.91;;;4.74;74.23
57086;BME280;42964;42.910;23.792;2024-02-16T07:13:06;98384.84;;;4.67;72.50
57086;BME280;42964;42.910;23.792;2024-02-16T07:18:05;98446.22;;;5.09;71.97
57086;BME280;42964;42.910;23.792;2024-02-16T07:23:04;98417.91;;;5.09;72.08
57086;BME280;42964;42.910;23.792;2024-02-16T07:28:03;98411.06;;;5.38;70.85
57086;BME280;42964;42.910;23.792;2024-02-16T07:33:06;98419.66;;;5.67;69.98
57086;BME280;42964;42.910;23.792;2024-02-16T07:38:08;98441.03;;;5.95;68.90
57086;BME280;42964;42.910;23.792;2024-02-16T07:43:07;98434.09;;;5.92;69.35
57086;BME280;42964;42.910;23.792;2024-02-16T07:48:07;98409.97;;;5.59;68.86
57086;BME280;42964;42.910;23.792;2024-02-16T07:53:06;98428.88;;;5.89;67.96
57086;BME280;42964;42.910;23.792;2024-02-16T07:58:05;98446.84;;;6.18;68.18
57086;BME280;42964;42.910;23.792;2024-02-16T08:03:04;98449.59;;;6.24;68.09
57086;BME280;42964;42.910;23.792;2024-02-16T08:08:03;98417.63;;;6.51;66.95
57086;BME280;42964;42.910;23.792;2024-02-16T08:13:02;98460.41;;;6.76;65.29
57086;BME280;42964;42.910;23.792;2024-02-16T08:18:01;98451.03;;;6.79;64.91
57086;BME280;42964;42.910;23.792;2024-02-16T08:23:01;98456.97;;;7.10;65.22
57086;BME280;42964;42.910;23.792;2024-02-16T08:28:00;98445.38;;;7.31;63.82
57086;BME280;42964;42.910;23.792;2024-02-16T08:32:59;98293.59;;;6.76;61.92
57086;BME280;42964;42.910;23.792;2024-02-16T08:37:58;98445.38;;;8.09;61.76
57086;BME280;42964;42.910;23.792;2024-02-16T08:42:57;98373.59;;;7.96;60.30
57086;BME280;42964;42.910;23.792;2024-02-16T08:47:57;98429.41;;;8.79;56.96
57086;BME280;42964;42.910;23.792;2024-02-16T08:52:56;98431.28;;;8.88;55.54
57086;BME280;42964;42.910;23.792;2024-02-16T08:57:55;98420.78;;;8.80;54.13
57086;BME280;42964;42.910;23.792;2024-02-16T09:02:54;98378.88;;;8.49;54.41
57086;BME280;42964;42.910;23.792;2024-02-16T09:07:53;98454.13;;;9.12;53.50
57086;BME280;42964;42.910;23.792;2024-02-16T09:12:52;98451.41;;;9.06;53.96
57086;BME280;42964;42.910;23.792;2024-02-16T09:17:51;98453.66;;;8.84;54.12
57086;BME280;42964;42.910;23.792;2024-02-16T09:22:52;98428.47;;;8.74;54.51
57086;BME280;42964;42.910;23.792;2024-02-16T09:27:50;98455.19;;;9.26;53.66
57086;BME280;42964;42.910;23.792;2024-02-16T09:32:49;98435.31;;;9.25;53.25
57086;BME280;42964;42.910;23.792;2024-02-16T09:37:48;98425.66;;;9.15;52.77
57086;BME280;42964;42.910;23.792;2024-02-16T09:42:48;98451.75;;;9.26;53.01
57086;BME280;42964;42.910;23.792;2024-02-16T09:47:51;98450.78;;;8.69;54.59
57086;BME280;42964;42.910;23.792;2024-02-16T09:52:50;98385.16;;;8.14;55.31
57086;BME280;42964;42.910;23.792;2024-02-16T09:58:07;98437.19;;;8.79;55.15
57086;BME280;42964;42.910;23.792;2024-02-16T10:03:07;98190.28;;;7.55;53.86
57086;BME280;42964;42.910;23.792;2024-02-16T10:08:12;98417.00;;;9.71;53.47
57086;BME280;42964;42.910;23.792;2024-02-16T10:13:11;98374.75;;;9.78;51.57
57086;BME280;42964;42.910;23.792;2024-02-16T10:18:10;98412.00;;;10.64;51.02
57086;BME280;42964;42.910;23.792;2024-02-16T10:23:09;98407.31;;;11.29;51.16
57086;BME280;42964;42.910;23.792;2024-02-16T10:28:10;98401.53;;;11.77;48.91
57086;BME280;42964;42.910;23.792;2024-02-16T10:33:12;98370.97;;;11.33;46.18
57086;BME280;42964;42.910;23.792;2024-02-16T10:38:11;98384.84;;;11.32;47.92
57086;BME280;42964;42.910;23.792;2024-02-16T10:43:13;98366.59;;;11.21;47.34
57086;BME280;42964;42.910;23.792;2024-02-16T10:48:12;98221.75;;;10.82;47.03
57086;BME280;42964;42.910;23.792;2024-02-16T10:58:19;98363.47;;;12.04;45.05
57086;BME280;42964;42.910;23.792;2024-02-16T11:03:23;98362.75;;;12.57;46.10
57086;BME280;42964;42.910;23.792;2024-02-16T11:08:24;98352.25;;;12.11;44.06
57086;BME280;42964;42.910;23.792;2024-02-16T11:13:28;98347.88;;;11.99;44.64
57086;BME280;42964;42.910;23.792;2024-02-16T11:18:28;98350.47;;;12.01;44.45
57086;BME280;42964;42.910;23.792;2024-02-16T11:23:29;98311.38;;;11.70;44.68
57086;BME280;42964;42.910;23.792;2024-02-16T11:28:31;98338.13;;;11.44;43.93
57086;BME280;42964;42.910;23.792;2024-02-16T11:33:30;98309.47;;;11.28;44.85
57086;BME280;42964;42.910;23.792;2024-02-16T11:38:33;98326.09;;;11.62;44.26
57086;BME280;42964;42.910;23.792;2024-02-16T11:43:32;98316.53;;;11.58;45.05
57086;BME280;42964;42.910;23.792;2024-02-16T11:48:31;98292.88;;;10.96;44.11
57086;BME280;42964;42.910;23.792;2024-02-16T11:53:31;98271.84;;;10.67;44.98
57086;BME280;42964;42.910;23.792;2024-02-16T11:58:31;98301.75;;;11.41;44.74
57086;BME280;42964;42.910;23.792;2024-02-16T12:03:30;98289.63;;;11.46;44.26
57086;BME280;42964;42.910;23.792;2024-02-16T12:08:33;98303.31;;;11.12;44.88
57086;BME280;42964;42.910;23.792;2024-02-16T12:13:33;98272.25;;;11.27;43.98
57086;BME280;42964;42.910;23.792;2024-02-16T12:18:32;98286.16;;;11.41;43.32
57086;BME280;42964;42.910;23.792;2024-02-16T12:23:31;98293.97;;;11.49;43.70
57086;BME280;42964;42.910;23.792;2024-02-16T12:28:31;98291.34;;;11.41;44.59
57086;BME280;42964;42.910;23.792;2024-02-16T12:33:32;98199.03;;;10.44;44.91
57086;BME280;42964;42.910;23.792;2024-02-16T12:38:31;98211.56;;;11.19;45.54
57086;BME280;42964;42.910;23.792;2024-02-16T12:43:30;98283.69;;;11.84;44.29
57086;BME280;42964;42.910;23.792;2024-02-16T12:48:29;98279.38;;;11.94;43.56
57086;BME280;42964;42.910;23.792;2024-02-16T12:53:28;98276.78;;;12.13;43.96
57086;BME280;42964;42.910;23.792;2024-02-16T12:58:35;98258.56;;;12.03;43.77
57086;BME280;42964;42.910;23.792;2024-02-16T13:03:35;98258.63;;;12.29;43.15
57086;BME280;42964;42.910;23.792;2024-02-16T13:08:34;98269.03;;;12.39;43.23
57086;BME280;42964;42.910;23.792;2024-02-16T13:13:33;98263.84;;;12.42;42.20
57086;BME280;42964;42.910;23.792;2024-02-16T13:18:32;98224.75;;;12.20;41.87
57086;BME280;42964;42.910;23.792;2024-02-16T13:23:31;98223.03;;;12.10;42.17
57086;BME280;42964;42.910;23.792;2024-02-16T13:28:30;98216.09;;;12.07;41.46
57086;BME280;42964;42.910;23.792;2024-02-16T13:33:29;98252.56;;;12.52;42.02
57086;BME280;42964;42.910;23.792;2024-02-16T13:38:28;98235.09;;;12.99;41.32
57086;BME280;42964;42.910;23.792;2024-02-16T13:43:27;98250.72;;;13.09;40.49
57086;BME280;42964;42.910;23.792;2024-02-16T13:48:26;98243.69;;;13.28;40.84
57086;BME280;42964;42.910;23.792;2024-02-16T13:53:25;98254.09;;;13.38;40.27
57086;BME280;42964;42.910;23.792;2024-02-16T13:58:24;98245.41;;;13.34;40.77
57086;BME280;42964;42.910;23.792;2024-02-16T14:03:23;98172.69;;;12.63;40.82
57086;BME280;42964;42.910;23.792;2024-02-16T14:08:22;98187.44;;;12.64;41.32
57086;BME280;42964;42.910;23.792;2024-02-16T14:13:21;98251.56;;;13.11;41.66
57086;BME280;42964;42.910;23.792;2024-02-16T14:18:23;98238.59;;;12.96;41.72
57086;BME280;42964;42.910;23.792;2024-02-16T14:23:22;98234.31;;;12.46;42.11
57086;BME280;42964;42.910;23.792;2024-02-16T14:28:21;98216.13;;;12.23;42.27
57086;BME280;42964;42.910;23.792;2024-02-16T14:33:20;98210.03;;;12.01;42.90
57086;BME280;42964;42.910;23.792;2024-02-16T14:38:19;98264.66;;;12.12;42.58
57086;BME280;42964;42.910;23.792;2024-02-16T14:43:18;98248.91;;;11.42;43.90
57086;BME280;42964;42.910;23.792;2024-02-16T14:48:17;98228.94;;;11.29;44.42
57086;BME280;42964;42.910;23.792;2024-02-16T14:53:16;98222.78;;;11.09;45.58
57086;BME280;42964;42.910;23.792;2024-02-16T14:58:16;98271.34;;;11.27;45.39
57086;BME280;42964;42.910;23.792;2024-02-16T15:03:15;98246.16;;;11.07;45.81
57086;BME280;42964;42.910;23.792;2024-02-16T15:08:14;98243.47;;;10.93;45.48
57086;BME280;42964;42.910;23.792;2024-02-16T15:13:14;98209.44;;;10.49;45.72
57086;BME280;42964;42.910;23.792;2024-02-16T15:18:12;98264.91;;;10.63;46.39
57086;BME280;42964;42.910;23.792;2024-02-16T15:23:11;98293.50;;;10.69;46.86
57086;BME280;42964;42.910;23.792;2024-02-16T15:28:12;98280.34;;;10.43;46.84
57086;BME280;42964;42.910;23.792;2024-02-16T15:33:12;98119.31;;;9.21;47.40
57086;BME280;42964;42.910;23.792;2024-02-16T15:38:11;98273.09;;;10.05;47.60
57086;BME280;42964;42.910;23.792;2024-02-16T15:43:10;98317.34;;;10.22;48.21
57086;BME280;42964;42.910;23.792;2024-02-16T15:48:11;98331.09;;;10.16;47.37
57086;BME280;42964;42.910;23.792;2024-02-16T15:53:10;98325.00;;;10.11;47.80
57086;BME280;42964;42.910;23.792;2024-02-16T15:58:10;98323.06;;;9.90;48.19
57086;BME280;42964;42.910;23.792;2024-02-16T16:03:09;98324.56;;;9.71;47.82
57086;BME280;42964;42.910;23.792;2024-02-16T16:08:08;98343.59;;;9.73;48.35
57086;BME280;42964;42.910;23.792;2024-02-16T16:13:07;98311.28;;;9.44;48.76
57086;BME280;42964;42.910;23.792;2024-02-16T16:18:08;98346.75;;;9.48;48.78
57086;BME280;42964;42.910;23.792;2024-02-16T16:23:07;98312.53;;;9.09;48.89
57086;BME280;42964;42.910;23.792;2024-02-16T16:28:07;98340.13;;;9.07;49.46
57086;BME280;42964;42.910;23.792;2024-02-16T16:33:06;98359.00;;;9.00;49.68
57086;BME280;42964;42.910;23.792;2024-02-16T16:38:05;98356.94;;;8.78;49.80
57086;BME280;42964;42.910;23.792;2024-02-16T16:43:08;98333.13;;;8.45;50.08
57086;BME280;42964;42.910;23.792;2024-02-16T16:48:08;98341.53;;;8.34;50.71
57086;BME280;42964;42.910;23.792;2024-02-16T16:53:07;98356.06;;;8.25;51.10
57086;BME280;42964;42.910;23.792;2024-02-16T16:58:06;98181.59;;;7.06;51.68
57086;BME280;42964;42.910;23.792;2024-02-16T17:03:05;98379.06;;;8.12;51.74
57086;BME280;42964;42.910;23.792;2024-02-16T17:08:04;98405.59;;;8.03;52.16
57086;BME280;42964;42.910;23.792;2024-02-16T17:13:03;98379.97;;;7.70;53.52
57086;BME280;42964;42.910;23.792;2024-02-16T17:18:02;98414.53;;;7.75;54.25
57086;BME280;42964;42.910;23.792;2024-02-16T17:23:03;98391.75;;;7.57;54.53
57086;BME280;42964;42.910;23.792;2024-02-16T17:28:03;98419.19;;;7.50;55.24
57086;BME280;42964;42.910;23.792;2024-02-16T17:33:02;98382.03;;;7.07;56.69
57086;BME280;42964;42.910;23.792;2024-02-16T17:38:01;98378.91;;;6.84;58.02
57086;BME280;42964;42.910;23.792;2024-02-16T17:43:01;98434.66;;;7.14;57.03
57086;BME280;42964;42.910;23.792;2024-02-16T17:48:00;98431.97;;;7.09;57.10
57086;BME280;42964;42.910;23.792;2024-02-16T17:52:59;98405.44;;;6.78;57.78
57086;BME280;42964;42.910;23.792;2024-02-16T17:57:59;98353.84;;;6.44;58.06
57086;BME280;42964;42.910;23.792;2024-02-16T18:02:58;98454.50;;;6.80;57.85
57086;BME280;42964;42.910;23.792;2024-02-16T18:07:57;98463.72;;;6.72;58.25
57086;BME280;42964;42.910;23.792;2024-02-16T18:12:56;98454.22;;;6.69;58.27
57086;BME280;42964;42.910;23.792;2024-02-16T18:17:55;98432.97;;;6.46;59.25
57086;BME280;42964;42.910;23.792;2024-02-16T18:22:55;98443.78;;;6.31;59.10
57086;BME280;42964;42.910;23.792;2024-02-16T18:27:55;98286.34;;;5.27;59.81
57086;BME280;42964;42.910;23.792;2024-02-16T18:32:55;98457.72;;;6.08;60.14
57086;BME280;42964;42.910;23.792;2024-02-16T18:37:54;98472.19;;;6.03;60.80
57086;BME280;42964;42.910;23.792;2024-02-16T18:42:53;98472.66;;;5.89;60.91
57086;BME280;42964;42.910;23.792;2024-02-16T18:47:53;98288.78;;;4.65;61.19
57086;BME280;42964;42.910;23.792;2024-02-16T18:52:52;98471.13;;;5.66;61.69
57086;BME280;42964;42.910;23.792;2024-02-16T18:57:51;98455.03;;;5.44;61.89
57086;BME280;42964;42.910;23.792;2024-02-16T19:02:51;98407.66;;;5.10;62.06
57086;BME280;42964;42.910;23.792;2024-02-16T19:07:50;98462.41;;;5.33;62.94
57086;BME280;42964;42.910;23.792;2024-02-16T19:12:49;98482.94;;;5.32;62.90
57086;BME280;42964;42.910;23.792;2024-02-16T19:17:48;98466.94;;;5.13;63.25
57086;BME280;42964;42.910;23.792;2024-02-16T19:22:47;98486.69;;;5.15;63.68
57086;BME280;42964;42.910;23.792;2024-02-16T19:27:52;98486.38;;;5.05;63.96
57086;BME280;42964;42.910;23.792;2024-02-16T19:32:51;98466.38;;;4.97;63.46
57086;BME280;42964;42.910;23.792;2024-02-16T19:37:50;98302.88;;;3.98;63.78
57086;BME280;42964;42.910;23.792;2024-02-16T19:42:49;98496.59;;;5.02;63.96
57086;BME280;42964;42.910;23.792;2024-02-16T19:47:48;98374.59;;;4.17;64.18
57086;BME280;42964;42.910;23.792;2024-02-16T19:52:47;98401.66;;;4.32;64.30
57086;BME280;42964;42.910;23.792;2024-02-16T19:57:48;98499.31;;;4.83;64.94
57086;BME280;42964;42.910;23.792;2024-02-16T20:02:48;98484.00;;;4.60;65.29
57086;BME280;42964;42.910;23.792;2024-02-16T20:07:50;98501.22;;;4.63;65.87
57086;BME280;42964;42.910;23.792;2024-02-16T20:12:49;98457.94;;;4.25;66.11
57086;BME280;42964;42.910;23.792;2024-02-16T20:17:48;98473.69;;;4.35;66.71
57086;BME280;42964;42.910;23.792;2024-02-16T20:22:47;98432.91;;;3.96;67.11
57086;BME280;42964;42.910;23.792;2024-02-16T20:27:50;98499.75;;;4.21;67.51
57086;BME280;42964;42.910;23.792;2024-02-16T20:32:49;98505.59;;;4.17;68.03
57086;BME280;42964;42.910;23.792;2024-02-16T20:37:52;98513.19;;;4.14;68.15
57086;BME280;42964;42.910;23.792;2024-02-16T20:42:52;98513.91;;;4.10;68.46
57086;BME280;42964;42.910;23.792;2024-02-16T20:47:51;98482.09;;;3.82;68.55
57086;BME280;42964;42.910;23.792;2024-02-16T20:52:50;98501.78;;;3.83;69.13
57086;BME280;42964;42.910;23.792;2024-02-16T20:57:51;98499.00;;;3.77;69.26
57086;BME280;42964;42.910;23.792;2024-02-16T21:02:51;98524.72;;;3.79;70.53
57086;BME280;42964;42.910;23.792;2024-02-16T21:07:51;98423.28;;;2.98;71.67
57086;BME280;42964;42.910;23.792;2024-02-16T21:12:51;98501.59;;;3.34;71.10
57086;BME280;42964;42.910;23.792;2024-02-16T21:17:50;98520.63;;;3.39;71.65
57086;BME280;42964;42.910;23.792;2024-02-16T21:22:50;98520.38;;;3.33;71.16
57086;BME280;42964;42.910;23.792;2024-02-16T21:27:49;98513.44;;;3.30;71.64
57086;BME280;42964;42.910;23.792;2024-02-16T21:32:48;98511.50;;;3.04;72.45
57086;BME280;42964;42.910;23.792;2024-02-16T21:37:49;98500.38;;;3.03;72.11
57086;BME280;42964;42.910;23.792;2024-02-16T21:42:48;98521.28;;;3.12;72.51
57086;BME280;42964;42.910;23.792;2024-02-16T21:47:48;98550.47;;;3.16;72.22
57086;BME280;42964;42.910;23.792;2024-02-16T21:52:47;98532.13;;;3.07;72.90
57086;BME280;42964;42.910;23.792;2024-02-16T21:57:46;98495.25;;;2.82;72.79
57086;BME280;42964;42.910;23.792;2024-02-16T22:02:45;98524.59;;;2.89;73.69
57086;BME280;42964;42.910;23.792;2024-02-16T22:07:44;98551.13;;;2.91;73.78
57086;BME280;42964;42.910;23.792;2024-02-16T22:12:43;98553.03;;;2.95;74.22
57086;BME280;42964;42.910;23.792;2024-02-16T22:17:42;98553.25;;;2.80;75.11
57086;BME280;42964;42.910;23.792;2024-02-16T22:22:41;98558.94;;;2.73;75.21
57086;BME280;42964;42.910;23.792;2024-02-16T22:27:40;98520.53;;;2.34;76.61
57086;BME280;42964;42.910;23.792;2024-02-16T22:32:40;98558.06;;;2.53;76.38
57086;BME280;42964;42.910;23.792;2024-02-16T22:37:39;98473.38;;;2.09;75.85
57086;BME280;42964;42.910;23.792;2024-02-16T22:42:38;98575.00;;;2.49;75.96
57086;BME280;42964;42.910;23.792;2024-02-16T22:47:37;98503.56;;;2.16;75.96
57086;BME280;42964;42.910;23.792;2024-02-16T22:52:36;98558.28;;;2.38;76.37
57086;BME280;42964;42.910;23.792;2024-02-16T22:57:35;98546.56;;;2.24;76.71
57086;BME280;42964;42.910;23.792;2024-02-16T23:02:34;98537.84;;;2.20;76.88
57086;BME280;42964;42.910;23.792;2024-02-16T23:07:33;98559.69;;;2.31;76.58
57086;BME280;42964;42.910;23.792;2024-02-16T23:12:33;98566.22;;;2.25;76.47
57086;BME280;42964;42.910;23.792;2024-02-16T23:17:32;98496.38;;;1.70;76.52
57086;BME280;42964;42.910;23.792;2024-02-16T23:22:31;98565.13;;;2.00;77.17
57086;BME280;42964;42.910;23.792;2024-02-16T23:27:30;98521.34;;;1.76;77.19
57086;BME280;42964;42.910;23.792;2024-02-16T23:32:29;98546.63;;;1.88;76.85
57086;BME280;42964;42.910;23.792;2024-02-16T23:37:28;98528.03;;;1.72;76.93
57086;BME280;42964;42.910;23.792;2024-02-16T23:42:27;98557.91;;;1.91;77.15
57086;BME280;42964;42.910;23.792;2024-02-16T23:47:26;98544.66;;;1.82;77.81
57086;BME280;42964;42.910;23.792;2024-02-16T23:52:25;98549.72;;;1.81;77.59
57086;BME280;42964;42.910;23.792;2024-02-16T23:57:24;98374.63;;;0.81;77.14
